Manzanita, California
Current Conditions -  °F | °C
As of 1:53 AM on Tuesday 27 Jan 2015 (Local Time) from KOVE Reporting Station
Clear Clear  
Wind Chill: 50°   Ceiling: Unl
Heat Index: 50°   Visibility: 9mi
Dew Point: 45°   Wind: 3mph
Humidity: 83%   Direction: 300°WNW
Pressure: 30.04"   Gusts: NA
Location:  39.3475°N, 121.759°W
Report Text: KOVE 270953Z AUTO 30003KT 9SM CLR 10/07 A3004 RMK AO2 SLP173 T01000072
Loading
Personal Weather Stations






























Interactive Weather Map New forecast layout! Learn more

10-Day Weather Forecast

Advertisements
Track Severe Weather on mobile